Time;durP1;ratioP1;P1;durP2;ratioP2;P2;SDS_P1;SDS_P2;PMS_P1;PMS_P2;Temp;Humidity;BMP_temperature;BMP_pressure;BME280_temperature;BME280_humidity;BME280_pressure;Samples;Min_cycle;Max_cycle;Signal;HPM_P1;HPM_P2
2023/05/17 00:02:14;;;;;;;10.35;3.55;;;9.40;99.90;;;;;;5081952;28;20098;-43
2023/05/17 00:04:39;;;;;;;13.55;3.85;;;9.40;99.90;;;;;;5081995;28;20032;-42
2023/05/17 00:07:05;;;;;;;10.70;3.67;;;9.40;99.90;;;;;;5081752;28;20027;-43
2023/05/17 00:09:30;;;;;;;9.90;3.25;;;9.30;99.90;;;;;;5082020;28;20135;-43
2023/05/17 00:11:59;;;;;;;12.38;3.45;;;9.30;99.90;;;;;;5082229;28;20020;-43
2023/05/17 00:14:24;;;;;;;10.38;3.08;;;9.30;99.90;;;;;;5060257;28;20094;-42
2023/05/17 00:16:51;;;;;;;6.65;2.67;;;9.20;99.90;;;;;;5075480;28;20016;-43
2023/05/17 00:19:17;;;;;;;4.82;2.35;;;9.20;99.90;;;;;;5082100;28;20024;-43
2023/05/17 00:21:45;;;;;;;6.95;3.03;;;9.20;99.90;;;;;;5080625;28;20024;-44
2023/05/17 00:24:11;;;;;;;6.15;2.25;;;9.20;99.90;;;;;;5082087;28;20028;-42
2023/05/17 00:26:36;;;;;;;8.88;2.88;;;9.20;99.90;;;;;;5081662;28;20851;-43
2023/05/17 00:29:02;;;;;;;7.30;3.00;;;9.20;99.90;;;;;;5081457;28;20077;-43
2023/05/17 00:31:28;;;;;;;9.05;3.45;;;9.20;99.90;;;;;;5081149;28;20455;-42
2023/05/17 00:33:53;;;;;;;11.15;4.22;;;9.20;99.90;;;;;;5082012;28;20020;-43
2023/05/17 00:36:19;;;;;;;9.32;3.72;;;9.20;99.90;;;;;;5080788;28;20486;-43
2023/05/17 00:38:45;;;;;;;6.55;3.13;;;9.20;99.90;;;;;;5081050;28;20069;-43
2023/05/17 00:41:11;;;;;;;8.65;3.20;;;9.20;99.90;;;;;;5081120;28;20905;-43
2023/05/17 00:43:37;;;;;;;9.73;4.18;;;9.20;99.90;;;;;;5080698;28;20566;-43
2023/05/17 00:46:03;;;;;;;11.18;3.95;;;9.20;99.90;;;;;;5085383;28;20023;-44
2023/05/17 00:48:29;;;;;;;11.07;4.30;;;9.20;99.90;;;;;;5084326;28;20494;-44
2023/05/17 00:50:55;;;;;;;10.40;3.28;;;9.20;99.90;;;;;;5085608;28;20068;-42
2023/05/17 00:53:21;;;;;;;8.02;3.08;;;9.10;99.90;;;;;;5084535;28;20060;-42
2023/05/17 00:55:50;;;;;;;10.75;3.35;;;9.10;99.90;;;;;;5064149;28;20087;-43
2023/05/17 00:58:16;;;;;;;10.40;3.20;;;9.10;99.90;;;;;;5079144;28;20048;-43
2023/05/17 01:00:42;;;;;;;10.32;3.67;;;9.10;99.90;;;;;;5084457;28;20115;-43
2023/05/17 01:03:07;;;;;;;8.98;3.20;;;9.10;99.90;;;;;;5083922;28;20035;-44
2023/05/17 01:05:33;;;;;;;7.20;2.70;;;9.10;99.90;;;;;;5084231;28;20043;-42
2023/05/17 01:07:58;;;;;;;12.85;4.00;;;9.10;99.90;;;;;;5084576;28;20492;-42
2023/05/17 01:10:40;;;;;;;6.85;3.28;;;9.10;99.90;;;;;;5083636;28;20032;-43
2023/05/17 01:13:14;;;;;;;7.43;2.83;;;9.10;99.90;;;;;;5084578;28;20020;-43
2023/05/17 01:15:52;;;;;;;6.47;2.60;;;9.10;99.90;;;;;;5084424;28;20134;-43
2023/05/17 01:18:47;;;;;;;7.78;3.03;;;9.10;99.90;;;;;;5083620;28;20475;-43
2023/05/17 01:21:56;;;;;;;9.77;3.25;;;9.10;99.90;;;;;;5081950;28;20463;-43
2023/05/17 01:24:32;;;;;;;7.03;3.15;;;9.00;99.90;;;;;;5083289;28;20396;-43
2023/05/17 01:27:05;;;;;;;5.15;2.40;;;9.10;99.90;;;;;;5064483;28;20024;-43
2023/05/17 01:29:34;;;;;;;6.68;2.75;;;9.10;99.90;;;;;;5080407;28;20035;-43
2023/05/17 01:32:05;;;;;;;9.10;3.03;;;9.00;99.90;;;;;;5083646;28;20019;-43
2023/05/17 01:34:30;;;;;;;5.47;2.80;;;9.00;99.90;;;;;;5083611;28;20519;-43
2023/05/17 01:36:56;;;;;;;7.60;3.17;;;9.00;99.90;;;;;;5084011;28;20115;-43
2023/05/17 01:39:22;;;;;;;11.65;3.70;;;9.10;99.90;;;;;;5083470;28;20475;-43
2023/05/17 01:42:01;;;;;;;10.35;3.83;;;9.00;99.90;;;;;;5083615;28;20123;-42
2023/05/17 01:44:36;;;;;;;8.65;3.50;;;9.10;99.90;;;;;;5083229;28;20031;-42
2023/05/17 01:47:32;;;;;;;6.85;4.25;;;9.10;99.90;;;;;;5083749;28;20028;-42
2023/05/17 01:49:59;;;;;;;11.35;3.70;;;9.10;99.90;;;;;;5083206;28;20024;-43
2023/05/17 01:52:37;;;;;;;10.10;4.15;;;9.10;99.90;;;;;;5082009;28;20028;-43
2023/05/17 01:55:20;;;;;;;8.50;3.47;;;9.10;99.90;;;;;;5081480;28;20708;-43
2023/05/17 01:57:51;;;;;;;9.68;4.05;;;9.10;99.90;;;;;;5083084;28;20028;-43
2023/05/17 02:00:18;;;;;;;11.23;3.50;;;9.20;99.90;;;;;;5083086;28;20036;-43
2023/05/17 02:02:44;;;;;;;9.05;3.50;;;9.20;99.90;;;;;;5083751;28;20028;-43
2023/05/17 02:05:10;;;;;;;8.85;3.53;;;9.20;99.90;;;;;;5084743;28;20020;-43
2023/05/17 02:07:35;;;;;;;8.55;3.35;;;9.20;99.90;;;;;;5082928;28;20808;-42
2023/05/17 02:10:01;;;;;;;6.50;2.75;;;9.20;99.90;;;;;;5083813;28;20065;-43
2023/05/17 02:12:26;;;;;;;8.50;3.67;;;9.20;99.90;;;;;;5083157;28;20065;-43
2023/05/17 02:14:52;;;;;;;7.68;3.10;;;9.20;99.90;;;;;;5082342;28;20020;-44
2023/05/17 02:17:18;;;;;;;6.32;3.35;;;9.20;99.90;;;;;;5083223;28;20034;-42
2023/05/17 02:19:43;;;;;;;10.02;3.30;;;9.20;99.90;;;;;;5084023;28;20028;-42
2023/05/17 02:22:09;;;;;;;8.77;2.88;;;9.20;99.90;;;;;;5083173;28;20042;-43
2023/05/17 02:24:35;;;;;;;7.85;3.65;;;9.20;99.90;;;;;;5083459;28;20035;-42
2023/05/17 02:27:02;;;;;;;9.50;3.65;;;9.30;99.90;;;;;;5083008;28;20038;-42
2023/05/17 02:29:27;;;;;;;8.15;3.47;;;9.30;99.90;;;;;;5083712;28;20031;-43
2023/05/17 02:31:53;;;;;;;8.25;3.30;;;9.40;99.90;;;;;;5082854;28;20036;-42
2023/05/17 02:34:18;;;;;;;8.75;3.35;;;9.50;99.90;;;;;;5082453;28;20749;-43
2023/05/17 02:36:44;;;;;;;14.55;4.97;;;9.50;99.90;;;;;;5083694;28;20131;-42
2023/05/17 02:39:10;;;;;;;9.88;3.83;;;9.50;99.90;;;;;;5082983;28;20459;-42
2023/05/17 02:41:35;;;;;;;10.27;4.43;;;9.60;99.90;;;;;;5081340;28;20038;-42
2023/05/17 02:44:01;;;;;;;6.97;3.78;;;9.60;99.90;;;;;;5083234;28;20024;-43
2023/05/17 02:46:26;;;;;;;8.15;3.15;;;9.60;99.90;;;;;;5083187;28;20043;-43
2023/05/17 02:48:52;;;;;;;7.43;3.20;;;9.70;99.90;;;;;;5082788;28;20073;-42
2023/05/17 02:51:20;;;;;;;8.18;3.40;;;9.70;99.90;;;;;;5082687;28;20143;-42
2023/05/17 02:53:46;;;;;;;8.43;2.90;;;9.70;99.90;;;;;;5082665;28;20024;-42
2023/05/17 02:56:12;;;;;;;13.48;3.88;;;9.70;99.90;;;;;;5082040;28;20040;-43
2023/05/17 02:58:37;;;;;;;6.78;3.35;;;9.70;99.90;;;;;;5081735;28;20024;-44
2023/05/17 03:01:06;;;;;;;9.40;3.35;;;9.80;99.90;;;;;;5081708;28;20974;-43
2023/05/17 03:03:31;;;;;;;6.25;3.80;;;9.80;99.90;;;;;;5081450;28;20035;-43
2023/05/17 03:06:01;;;;;;;9.30;3.92;;;9.80;99.90;;;;;;5081888;28;20024;-43
2023/05/17 03:08:26;;;;;;;6.50;3.58;;;9.80;99.90;;;;;;5081477;28;20367;-43
2023/05/17 03:10:52;;;;;;;9.25;4.10;;;9.80;99.90;;;;;;5082221;28;20040;-43
2023/05/17 03:13:24;;;;;;;14.70;4.47;;;9.80;99.90;;;;;;5081945;28;20023;-42
2023/05/17 03:15:50;;;;;;;13.97;4.80;;;9.80;99.90;;;;;;5083064;28;20342;-43
2023/05/17 03:18:15;;;;;;;10.05;4.10;;;9.90;99.90;;;;;;5082020;28;20542;-43
2023/05/17 03:20:41;;;;;;;11.35;4.88;;;9.90;99.90;;;;;;5081444;28;20115;-43
2023/05/17 03:23:12;;;;;;;8.10;3.83;;;9.90;99.90;;;;;;5082529;28;20024;-43
2023/05/17 03:25:38;;;;;;;7.22;3.58;;;9.90;99.90;;;;;;5081536;28;20028;-43
2023/05/17 03:28:06;;;;;;;7.55;3.92;;;9.90;99.90;;;;;;5082169;28;20032;-43
2023/05/17 03:30:35;;;;;;;7.93;3.70;;;9.90;99.90;;;;;;5081220;28;20051;-43
2023/05/17 03:33:00;;;;;;;9.52;4.40;;;9.90;99.90;;;;;;5081720;28;20024;-43
2023/05/17 03:35:26;;;;;;;8.43;4.15;;;9.90;99.90;;;;;;5081691;28;20042;-42
2023/05/17 03:37:52;;;;;;;12.48;4.43;;;9.90;99.90;;;;;;5081339;28;20034;-42
2023/05/17 03:40:17;;;;;;;6.85;3.53;;;9.90;99.90;;;;;;5081181;28;20097;-42
2023/05/17 03:42:43;;;;;;;6.88;4.00;;;9.90;99.90;;;;;;5081771;28;20032;-42
2023/05/17 03:45:09;;;;;;;8.43;3.45;;;9.80;99.90;;;;;;5081478;28;20495;-42
2023/05/17 03:47:34;;;;;;;9.02;3.50;;;9.90;99.90;;;;;;5081506;28;20032;-42
2023/05/17 03:50:00;;;;;;;12.13;3.95;;;9.80;99.90;;;;;;5081702;28;20492;-42
2023/05/17 03:52:25;;;;;;;8.13;3.75;;;9.80;99.90;;;;;;5081009;28;20028;-44
2023/05/17 03:54:51;;;;;;;9.68;4.00;;;9.80;99.90;;;;;;5081732;28;20040;-43
2023/05/17 03:57:18;;;;;;;8.02;3.72;;;9.80;99.90;;;;;;5082168;28;20891;-43
2023/05/17 03:59:44;;;;;;;9.13;4.13;;;9.80;99.90;;;;;;5081320;28;20032;-42
2023/05/17 04:02:10;;;;;;;10.10;3.75;;;9.80;99.90;;;;;;5081499;28;20719;-43
2023/05/17 04:04:35;;;;;;;9.52;3.85;;;9.80;99.90;;;;;;5081144;28;20121;-42
2023/05/17 04:07:01;;;;;;;7.47;3.22;;;9.70;99.90;;;;;;5080323;28;20028;-42
2023/05/17 04:09:26;;;;;;;6.45;3.50;;;9.70;99.90;;;;;;5080626;28;20140;-43
2023/05/17 04:11:52;;;;;;;5.47;3.30;;;9.70;99.90;;;;;;5081801;28;20383;-43
2023/05/17 04:14:18;;;;;;;8.82;4.22;;;9.60;99.90;;;;;;5080624;28;20020;-42
2023/05/17 04:16:44;;;;;;;8.35;4.30;;;9.60;99.90;;;;;;5081983;28;20526;-42
2023/05/17 04:19:09;;;;;;;6.50;4.35;;;9.60;99.90;;;;;;5084480;28;20099;-42
2023/05/17 04:21:35;;;;;;;7.38;3.78;;;9.60;99.90;;;;;;5083938;28;20043;-43
2023/05/17 04:24:03;;;;;;;9.13;4.07;;;9.50;99.90;;;;;;5085757;28;20020;-43
2023/05/17 04:26:29;;;;;;;8.32;4.47;;;9.60;99.90;;;;;;5084694;28;20039;-43
2023/05/17 04:28:57;;;;;;;9.05;4.40;;;9.60;99.90;;;;;;5084603;28;20028;-43
2023/05/17 04:31:23;;;;;;;9.32;4.45;;;9.60;99.90;;;;;;5085167;28;20031;-42
2023/05/17 04:33:48;;;;;;;6.78;3.70;;;9.60;99.90;;;;;;5085029;28;20734;-42
2023/05/17 04:36:14;;;;;;;8.30;3.90;;;9.60;99.90;;;;;;5085286;28;20848;-43
2023/05/17 04:38:40;;;;;;;7.97;4.15;;;9.60;99.90;;;;;;5085593;28;20028;-42
2023/05/17 04:41:06;;;;;;;10.77;4.47;;;9.60;99.90;;;;;;5084599;28;20119;-42
2023/05/17 04:43:32;;;;;;;7.60;3.70;;;9.60;99.90;;;;;;5084752;28;20814;-43
2023/05/17 04:45:58;;;;;;;9.07;3.55;;;9.60;99.90;;;;;;5085002;28;20020;-43
2023/05/17 04:48:25;;;;;;;10.45;4.78;;;9.50;99.90;;;;;;5083431;28;20020;-42
2023/05/17 04:50:52;;;;;;;8.07;4.00;;;9.60;99.90;;;;;;5085071;28;20042;-42
2023/05/17 04:53:18;;;;;;;9.32;3.65;;;9.60;99.90;;;;;;5085526;28;20101;-42
2023/05/17 04:55:49;;;;;;;9.85;4.35;;;9.60;99.90;;;;;;5084221;28;20060;-42
2023/05/17 04:58:18;;;;;;;7.40;3.85;;;9.70;99.90;;;;;;5085917;28;20024;-44
2023/05/17 05:00:46;;;;;;;7.38;4.03;;;9.70;99.90;;;;;;5084695;28;20024;-44
2023/05/17 05:03:12;;;;;;;7.50;3.97;;;9.70;99.90;;;;;;5084607;28;20111;-42
2023/05/17 05:05:37;;;;;;;10.75;4.00;;;9.80;99.90;;;;;;5084388;28;20362;-42
2023/05/17 05:08:03;;;;;;;7.15;3.83;;;9.90;99.90;;;;;;5084815;28;20028;-44
2023/05/17 05:10:29;;;;;;;10.45;4.28;;;10.00;99.90;;;;;;5083596;28;20617;-44
2023/05/17 05:12:54;;;;;;;7.82;4.03;;;10.10;99.90;;;;;;5084707;28;20068;-42
2023/05/17 05:15:20;;;;;;;8.80;3.58;;;10.20;99.90;;;;;;5084213;28;20115;-44
2023/05/17 05:17:47;;;;;;;8.20;3.97;;;10.20;99.90;;;;;;5083588;28;20032;-42
2023/05/17 05:20:13;;;;;;;6.25;3.78;;;10.20;99.90;;;;;;5084086;28;20547;-42
2023/05/17 05:22:38;;;;;;;7.15;3.70;;;10.10;99.90;;;;;;5083298;28;20055;-43
2023/05/17 05:25:07;;;;;;;8.30;3.85;;;10.10;99.90;;;;;;5083715;28;20107;-42
2023/05/17 05:27:34;;;;;;;5.70;3.75;;;10.10;99.90;;;;;;5083897;28;20036;-42
2023/05/17 05:30:06;;;;;;;8.15;3.80;;;10.20;99.90;;;;;;5083624;28;20088;-43
2023/05/17 05:32:32;;;;;;;10.43;3.63;;;10.20;99.90;;;;;;5084393;28;20513;-43
2023/05/17 05:34:57;;;;;;;7.45;3.13;;;10.30;99.90;;;;;;5085437;28;20016;-43
2023/05/17 05:37:23;;;;;;;8.80;3.63;;;10.40;99.90;;;;;;5082807;28;20020;-43
2023/05/17 05:39:48;;;;;;;6.72;3.58;;;10.40;99.90;;;;;;5084388;28;20768;-41
2023/05/17 05:42:14;;;;;;;9.52;3.30;;;10.40;99.90;;;;;;5083373;28;20058;-43
2023/05/17 05:44:39;;;;;;;7.60;3.28;;;10.50;99.90;;;;;;5083452;28;20601;-44
2023/05/17 05:47:05;;;;;;;9.57;3.30;;;10.50;99.90;;;;;;5083956;28;20098;-43
2023/05/17 05:49:34;;;;;;;6.35;2.92;;;10.50;99.90;;;;;;5081271;28;20621;-42
2023/05/17 05:52:00;;;;;;;11.27;3.20;;;10.60;99.90;;;;;;5082220;28;20020;-43
2023/05/17 05:54:25;;;;;;;9.82;4.03;;;10.50;99.90;;;;;;5082862;28;20484;-43
2023/05/17 05:56:51;;;;;;;9.00;3.40;;;10.60;99.90;;;;;;5083432;28;20028;-42
2023/05/17 05:59:16;;;;;;;8.35;3.20;;;10.60;99.90;;;;;;5081449;28;20035;-43
2023/05/17 06:01:45;;;;;;;10.73;3.53;;;10.60;99.90;;;;;;5083198;28;20046;-43
2023/05/17 06:04:11;;;;;;;8.48;3.38;;;10.70;99.90;;;;;;5081796;28;20016;-43
2023/05/17 06:06:36;;;;;;;9.93;3.60;;;10.80;99.90;;;;;;5082077;28;20039;-42
2023/05/17 06:09:02;;;;;;;9.15;3.30;;;10.90;99.90;;;;;;5082786;28;20020;-42
2023/05/17 06:11:28;;;;;;;7.47;2.67;;;10.90;99.90;;;;;;5082145;28;20492;-43
2023/05/17 06:13:54;;;;;;;5.32;2.30;;;11.00;99.90;;;;;;5081615;28;20028;-43
2023/05/17 06:16:19;;;;;;;5.03;2.42;;;11.00;99.90;;;;;;5082613;28;20033;-43
2023/05/17 06:18:45;;;;;;;8.82;2.30;;;11.00;99.90;;;;;;5082183;28;20020;-42
2023/05/17 06:21:14;;;;;;;10.70;3.15;;;11.00;99.90;;;;;;5082736;28;20044;-43
2023/05/17 06:23:57;;;;;;;8.00;3.30;;;11.00;99.90;;;;;;5082076;28;20016;-44
2023/05/17 06:26:32;;;;;;;11.25;3.15;;;11.00;99.90;;;;;;5082429;28;20024;-43
2023/05/17 06:29:00;;;;;;;11.57;3.42;;;11.00;99.90;;;;;;5082670;28;20031;-43
2023/05/17 06:31:26;;;;;;;9.50;3.10;;;11.00;99.90;;;;;;5081724;28;20488;-43
2023/05/17 06:33:58;;;;;;;10.90;3.42;;;11.00;99.90;;;;;;5081377;28;20815;-42
2023/05/17 06:36:23;;;;;;;8.65;3.20;;;11.00;99.90;;;;;;5082308;28;20028;-43
2023/05/17 06:38:49;;;;;;;9.68;3.05;;;11.00;99.90;;;;;;5082040;28;20391;-43
2023/05/17 06:41:15;;;;;;;8.75;3.10;;;10.90;99.90;;;;;;5081660;28;20040;-44
2023/05/17 06:43:40;;;;;;;10.68;2.75;;;10.90;99.90;;;;;;5082496;28;20126;-43
2023/05/17 06:46:06;;;;;;;8.23;2.78;;;10.90;99.90;;;;;;5082382;28;20034;-43
2023/05/17 06:48:34;;;;;;;8.45;2.33;;;10.90;99.90;;;;;;5081236;28;20043;-42
2023/05/17 06:50:59;;;;;;;7.15;2.20;;;11.00;99.90;;;;;;5082911;28;20030;-43
2023/05/17 06:53:26;;;;;;;8.10;2.22;;;11.00;99.90;;;;;;5082280;28;20024;-42
2023/05/17 06:55:51;;;;;;;10.75;1.95;;;11.10;99.90;;;;;;5082181;28;20044;-43
2023/05/17 06:58:17;;;;;;;9.35;2.05;;;11.20;99.90;;;;;;5082131;28;20394;-41
2023/05/17 07:00:42;;;;;;;7.03;1.88;;;11.40;99.90;;;;;;5082461;28;20032;-42
2023/05/17 07:03:08;;;;;;;6.60;1.92;;;11.50;99.90;;;;;;5082124;28;20472;-43
2023/05/17 07:05:34;;;;;;;7.53;2.00;;;11.70;99.90;;;;;;5082123;28;20065;-43
2023/05/17 07:08:00;;;;;;;7.93;1.67;;;11.80;99.90;;;;;;5082011;28;20107;-43
2023/05/17 07:10:29;;;;;;;4.18;1.60;;;11.90;99.90;;;;;;5081613;28;20689;-43
2023/05/17 07:12:54;;;;;;;5.80;1.77;;;12.00;99.90;;;;;;5082350;28;20032;-43
2023/05/17 07:15:20;;;;;;;5.85;1.52;;;12.10;99.90;;;;;;5081866;28;20027;-43
2023/05/17 07:17:45;;;;;;;9.50;2.40;;;12.10;99.90;;;;;;5082428;28;20353;-43
2023/05/17 07:20:11;;;;;;;8.38;1.70;;;12.20;99.90;;;;;;5082454;28;20051;-43
2023/05/17 07:22:37;;;;;;;9.32;2.00;;;12.10;99.90;;;;;;5081404;28;20071;-43
2023/05/17 07:25:03;;;;;;;4.75;1.65;;;12.20;99.90;;;;;;5083042;28;20061;-43
2023/05/17 07:27:29;;;;;;;4.40;1.50;;;12.20;99.90;;;;;;5082074;28;20031;-44
2023/05/17 07:29:54;;;;;;;5.32;1.50;;;12.20;99.90;;;;;;5081988;28;20020;-42
2023/05/17 07:32:20;;;;;;;5.47;1.77;;;12.20;99.90;;;;;;5081741;28;20057;-44
2023/05/17 07:34:45;;;;;;;5.20;1.42;;;12.30;99.90;;;;;;5082302;28;20135;-43
2023/05/17 07:37:11;;;;;;;5.75;1.60;;;12.40;99.90;;;;;;5079825;28;20022;-44
2023/05/17 07:39:37;;;;;;;5.75;1.48;;;12.40;99.90;;;;;;5081174;28;20028;-43
2023/05/17 07:42:02;;;;;;;7.88;1.63;;;12.50;99.90;;;;;;5081195;28;20036;-42
2023/05/17 07:44:28;;;;;;;4.78;1.42;;;12.50;99.90;;;;;;5081075;28;20475;-42
2023/05/17 07:46:53;;;;;;;8.60;1.38;;;12.50;99.90;;;;;;5081358;28;20022;-42
2023/05/17 07:49:22;;;;;;;6.80;1.35;;;12.60;99.90;;;;;;5081745;28;20024;-43
2023/05/17 07:51:54;;;;;;;7.03;1.23;;;12.70;99.90;;;;;;5080908;28;20352;-43
2023/05/17 07:54:23;;;;;;;7.18;2.03;;;12.80;99.90;;;;;;5085903;28;20044;-43
2023/05/17 07:56:48;;;;;;;5.63;1.30;;;12.80;99.90;;;;;;5085581;28;20020;-43
2023/05/17 07:59:14;;;;;;;5.22;1.33;;;12.90;99.90;;;;;;5085929;28;20043;-43
2023/05/17 08:01:40;;;;;;;4.88;1.40;;;12.90;99.90;;;;;;5085336;28;20032;-43
2023/05/17 08:04:08;;;;;;;8.23;1.92;;;12.90;99.90;;;;;;5086346;28;20479;-42
2023/05/17 08:06:36;;;;;;;7.60;1.90;;;12.90;99.90;;;;;;5084755;28;20028;-42
2023/05/17 08:09:03;;;;;;;3.67;1.30;;;12.80;99.90;;;;;;5086763;28;20020;-42
2023/05/17 08:11:28;;;;;;;6.22;1.75;;;12.80;99.90;;;;;;5085925;28;20031;-43
2023/05/17 08:13:54;;;;;;;4.80;1.25;;;12.80;99.90;;;;;;5085272;28;20027;-43
2023/05/17 08:16:20;;;;;;;6.30;1.45;;;12.80;99.90;;;;;;5084907;28;20028;-44
2023/05/17 08:18:46;;;;;;;5.28;1.60;;;12.80;99.90;;;;;;5084148;28;20061;-43
2023/05/17 08:21:11;;;;;;;4.35;1.33;;;12.90;99.90;;;;;;5085661;28;20032;-43
2023/05/17 08:23:37;;;;;;;7.13;1.70;;;12.90;99.90;;;;;;5085077;28;20051;-43
2023/05/17 08:26:02;;;;;;;6.90;1.58;;;12.90;99.90;;;;;;5085646;28;20480;-43
2023/05/17 08:28:31;;;;;;;5.50;1.30;;;13.00;99.90;;;;;;5084989;28;20084;-42
2023/05/17 08:31:00;;;;;;;4.82;1.35;;;13.00;99.90;;;;;;5084221;28;20206;-43
2023/05/17 08:33:26;;;;;;;4.88;1.05;;;13.10;99.90;;;;;;5082729;28;20016;-43
2023/05/17 08:35:54;;;;;;;3.92;1.30;;;13.10;99.90;;;;;;5084779;28;20035;-42
2023/05/17 08:38:20;;;;;;;5.22;1.45;;;13.10;99.90;;;;;;5083547;28;20027;-42
2023/05/17 08:40:53;;;;;;;5.07;1.33;;;13.20;99.90;;;;;;5083052;28;20600;-44
2023/05/17 08:43:20;;;;;;;5.40;1.30;;;13.30;99.90;;;;;;5084242;28;20032;-44
2023/05/17 08:45:48;;;;;;;7.18;1.52;;;13.20;99.90;;;;;;5084201;28;20028;-43
2023/05/17 08:48:16;;;;;;;6.85;1.25;;;13.20;99.90;;;;;;5084177;28;20026;-42
2023/05/17 08:50:43;;;;;;;4.63;1.38;;;13.10;99.90;;;;;;5085369;28;20023;-43
2023/05/17 08:53:16;;;;;;;3.63;1.10;;;13.10;99.90;;;;;;5083936;28;20028;-43
2023/05/17 08:55:47;;;;;;;4.00;1.20;;;13.20;99.90;;;;;;5083652;28;20044;-43
2023/05/17 08:58:15;;;;;;;4.00;1.30;;;13.20;99.90;;;;;;5084901;28;20028;-43
2023/05/17 09:00:41;;;;;;;3.55;0.95;;;13.30;99.90;;;;;;5073772;28;20102;-43
2023/05/17 09:03:07;;;;;;;6.40;1.30;;;13.40;99.90;;;;;;5084339;28;20091;-44
2023/05/17 09:05:33;;;;;;;3.83;1.20;;;13.40;99.90;;;;;;5083323;28;20189;-43
2023/05/17 09:08:01;;;;;;;4.13;1.15;;;13.30;99.90;;;;;;5084330;28;20566;-44
2023/05/17 09:10:29;;;;;;;7.93;1.40;;;13.30;99.90;;;;;;5084025;28;20019;-43
2023/05/17 09:12:55;;;;;;;4.80;1.10;;;13.20;99.90;;;;;;5084852;28;20032;-43
2023/05/17 09:15:22;;;;;;;3.13;1.05;;;13.20;99.90;;;;;;5084059;28;20093;-43
2023/05/17 09:17:55;;;;;;;3.50;1.13;;;13.30;99.90;;;;;;5083432;28;20032;-43
2023/05/17 09:20:23;;;;;;;4.22;0.98;;;13.40;99.90;;;;;;5084379;28;20040;-43
2023/05/17 09:22:49;;;;;;;8.95;1.33;;;13.50;99.90;;;;;;5083878;28;20127;-44
2023/05/17 09:25:19;;;;;;;2.53;1.13;;;13.40;99.90;;;;;;5085061;28;20035;-44
2023/05/17 09:27:45;;;;;;;4.10;1.38;;;13.40;99.90;;;;;;5084364;28;20032;-42
2023/05/17 09:30:11;;;;;;;4.32;1.40;;;13.40;99.90;;;;;;5083491;28;20024;-42
2023/05/17 09:32:43;;;;;;;5.47;1.67;;;13.50;99.90;;;;;;5084344;28;20024;-43
2023/05/17 09:35:09;;;;;;;7.57;1.50;;;13.50;98.70;;;;;;5084104;28;20024;-43
2023/05/17 09:37:37;;;;;;;5.82;1.17;;;13.50;99.10;;;;;;5083535;28;20032;-43
2023/05/17 09:40:05;;;;;;;3.70;1.25;;;13.60;99.20;;;;;;5083909;28;20055;-42
2023/05/17 09:42:35;;;;;;;6.45;1.90;;;13.50;98.90;;;;;;5083853;28;20040;-43
2023/05/17 09:45:01;;;;;;;4.05;1.30;;;13.50;98.90;;;;;;5084275;28;20043;-43
2023/05/17 09:47:32;;;;;;;3.10;1.10;;;13.50;98.70;;;;;;5083857;28;20024;-43
2023/05/17 09:50:03;;;;;;;4.03;1.10;;;13.50;98.60;;;;;;5083978;28;20090;-43
2023/05/17 09:52:30;;;;;;;4.90;1.10;;;13.50;98.70;;;;;;5082823;28;20435;-43
2023/05/17 09:54:58;;;;;;;3.05;1.33;;;13.60;98.50;;;;;;5083967;28;20049;-43
2023/05/17 09:57:25;;;;;;;3.38;1.08;;;13.70;98.40;;;;;;5082574;28;20032;-43
2023/05/17 09:59:57;;;;;;;4.50;1.27;;;13.80;98.30;;;;;;5083498;28;20055;-42
2023/05/17 10:02:27;;;;;;;2.60;0.90;;;13.80;97.70;;;;;;5083522;28;20089;-43
2023/05/17 10:04:56;;;;;;;4.38;1.20;;;13.80;97.20;;;;;;5083066;28;20024;-43
2023/05/17 10:07:26;;;;;;;4.50;1.08;;;13.80;97.50;;;;;;5083806;28;20024;-43
2023/05/17 10:09:53;;;;;;;2.97;0.95;;;13.90;97.60;;;;;;5084358;28;20097;-43
2023/05/17 10:12:22;;;;;;;5.60;1.30;;;13.90;97.20;;;;;;5082108;28;20032;-44
2023/05/17 10:14:48;;;;;;;3.53;1.20;;;13.90;96.10;;;;;;5083560;28;20028;-44
2023/05/17 10:17:14;;;;;;;4.07;1.38;;;13.90;96.20;;;;;;5082490;28;20209;-44
2023/05/17 10:19:43;;;;;;;3.00;1.05;;;13.80;96.30;;;;;;5082774;28;20395;-43
2023/05/17 10:22:08;;;;;;;3.95;1.05;;;13.90;96.70;;;;;;5084220;28;20593;-42
2023/05/17 10:24:36;;;;;;;2.85;0.80;;;13.90;96.30;;;;;;5083619;28;20031;-42
2023/05/17 10:27:02;;;;;;;6.90;1.02;;;13.90;96.50;;;;;;5083562;28;20024;-43
2023/05/17 10:29:30;;;;;;;5.18;1.00;;;13.90;96.40;;;;;;5082936;28;20380;-44
2023/05/17 10:31:57;;;;;;;4.90;1.10;;;13.90;96.00;;;;;;5083122;28;20111;-44
2023/05/17 10:34:26;;;;;;;2.45;1.00;;;13.90;95.90;;;;;;5082501;28;20113;-44
2023/05/17 10:36:52;;;;;;;4.20;1.10;;;13.90;95.80;;;;;;5082697;28;20583;-43
2023/05/17 10:39:20;;;;;;;7.47;1.33;;;14.00;95.50;;;;;;5082447;28;20536;-44
2023/05/17 10:41:50;;;;;;;3.33;0.90;;;13.90;94.50;;;;;;5083006;28;20028;-43
2023/05/17 10:44:16;;;;;;;2.85;1.20;;;13.90;95.20;;;;;;5082624;28;20059;-43
2023/05/17 10:46:56;;;;;;;3.92;0.90;;;13.90;94.80;;;;;;5081776;28;20907;-44
2023/05/17 10:49:29;;;;;;;2.33;1.05;;;14.00;94.80;;;;;;5072113;28;20097;-44
2023/05/17 10:52:10;;;;;;;3.47;0.90;;;14.10;94.80;;;;;;5083965;28;20039;-43
2023/05/17 10:54:38;;;;;;;4.43;1.05;;;14.10;93.80;;;;;;5071610;28;20039;-44
2023/05/17 10:57:08;;;;;;;2.53;0.93;;;14.10;92.70;;;;;;5082726;28;20035;-42
2023/05/17 10:59:34;;;;;;;5.95;0.95;;;14.10;92.90;;;;;;5081959;28;20019;-44
2023/05/17 11:02:05;;;;;;;3.80;1.02;;;14.10;92.10;;;;;;5081503;28;20547;-43
2023/05/17 11:04:40;;;;;;;8.55;1.70;;;14.10;91.80;;;;;;5081252;28;20051;-42
2023/05/17 11:07:18;;;;;;;3.95;1.30;;;14.10;91.30;;;;;;5081715;28;20020;-43
2023/05/17 11:09:46;;;;;;;4.15;1.23;;;14.10;91.30;;;;;;5081077;28;20135;-44
2023/05/17 11:12:13;;;;;;;5.07;0.90;;;14.10;91.90;;;;;;5082532;28;20111;-43
2023/05/17 11:14:44;;;;;;;4.13;1.13;;;14.20;91.80;;;;;;5081325;28;20032;-42
2023/05/17 11:17:25;;;;;;;5.18;1.45;;;14.20;91.70;;;;;;5082717;28;20854;-42
2023/05/17 11:19:53;;;;;;;4.68;0.90;;;14.20;91.70;;;;;;5082900;28;20024;-43
2023/05/17 11:22:22;;;;;;;3.00;1.08;;;14.30;91.70;;;;;;5081160;28;20044;-42
2023/05/17 11:24:52;;;;;;;4.90;1.25;;;14.30;91.20;;;;;;5082418;28;20055;-42
2023/05/17 11:27:19;;;;;;;4.07;1.27;;;14.30;90.70;;;;;;5081546;28;20024;-43
2023/05/17 11:29:47;;;;;;;4.60;1.02;;;14.40;91.10;;;;;;5081251;28;20524;-43
2023/05/17 11:32:13;;;;;;;2.80;1.05;;;14.40;90.40;;;;;;5082591;28;20023;-43
2023/05/17 11:34:39;;;;;;;2.72;0.90;;;14.40;90.70;;;;;;5081089;28;20048;-43
2023/05/17 11:37:09;;;;;;;3.60;1.10;;;14.50;90.50;;;;;;5081546;28;20035;-43
2023/05/17 11:39:35;;;;;;;5.65;1.05;;;14.60;90.60;;;;;;5081721;28;20512;-44
2023/05/17 11:42:03;;;;;;;4.15;1.23;;;14.70;89.60;;;;;;5081913;28;20147;-43
2023/05/17 11:44:32;;;;;;;4.40;1.10;;;14.70;90.20;;;;;;5080843;28;20027;-43
2023/05/17 11:47:08;;;;;;;8.38;1.25;;;14.80;88.90;;;;;;5082794;28;20030;-43
2023/05/17 11:49:37;;;;;;;8.98;1.70;;;14.80;88.50;;;;;;5081864;28;20028;-42
2023/05/17 11:52:06;;;;;;;4.22;1.17;;;14.80;89.70;;;;;;5081444;28;20986;-43
2023/05/17 11:54:33;;;;;;;5.40;1.40;;;14.90;88.50;;;;;;5081735;28;20036;-43
2023/05/17 11:56:59;;;;;;;3.65;1.08;;;14.80;87.10;;;;;;5081170;28;20836;-44
2023/05/17 11:59:25;;;;;;;4.60;1.17;;;14.90;88.40;;;;;;5080907;28;20551;-43
2023/05/17 12:01:51;;;;;;;5.63;1.48;;;14.90;88.50;;;;;;5081849;28;20050;-43
2023/05/17 12:04:27;;;;;;;3.92;1.15;;;15.00;88.60;;;;;;5081108;28;20020;-43
2023/05/17 12:06:54;;;;;;;2.97;0.98;;;15.10;87.60;;;;;;5070627;28;20603;-43
2023/05/17 12:09:21;;;;;;;4.05;1.27;;;15.10;87.90;;;;;;5080904;28;20028;-42
2023/05/17 12:11:47;;;;;;;4.57;1.20;;;15.20;87.80;;;;;;5079535;28;20490;-43
2023/05/17 12:14:17;;;;;;;5.32;1.20;;;15.20;87.90;;;;;;5080936;28;20034;-43
2023/05/17 12:16:46;;;;;;;3.65;0.93;;;15.20;87.80;;;;;;5080998;28;20035;-43
2023/05/17 12:19:19;;;;;;;4.28;0.90;;;15.20;87.70;;;;;;5081060;28;20016;-43
2023/05/17 12:21:45;;;;;;;6.25;1.40;;;15.20;86.80;;;;;;5080577;28;20044;-43
2023/05/17 12:24:12;;;;;;;6.40;1.55;;;15.20;85.60;;;;;;5081668;28;20017;-43
2023/05/17 12:26:46;;;;;;;6.47;1.50;;;15.20;84.70;;;;;;5080418;28;20039;-43
2023/05/17 12:29:14;;;;;;;3.70;1.25;;;15.20;85.50;;;;;;5081462;28;20032;-44
2023/05/17 12:31:45;;;;;;;4.93;1.58;;;15.20;85.90;;;;;;5080469;28;20056;-43
2023/05/17 12:34:12;;;;;;;8.32;2.10;;;15.20;84.70;;;;;;5081370;28;20032;-42
2023/05/17 12:36:39;;;;;;;6.78;1.52;;;15.20;82.30;;;;;;5080366;28;20026;-42
2023/05/17 12:39:08;;;;;;;6.72;1.52;;;15.10;84.00;;;;;;5081203;28;20035;-42
2023/05/17 12:41:37;;;;;;;4.93;1.63;;;15.10;83.30;;;;;;5084875;28;20038;-43
2023/05/17 12:44:05;;;;;;;5.07;1.50;;;15.10;82.80;;;;;;5085468;28;20024;-44
2023/05/17 12:46:31;;;;;;;6.78;1.70;;;15.10;82.70;;;;;;5084353;28;20585;-43
2023/05/17 12:49:04;;;;;;;6.75;1.95;;;15.20;83.00;;;;;;5086060;28;20024;-43
2023/05/17 12:51:40;;;;;;;4.28;1.40;;;15.20;82.60;;;;;;5084276;28;20017;-43
2023/05/17 12:54:05;;;;;;;3.88;1.60;;;15.20;82.90;;;;;;5084611;28;20024;-43